sensor_id;sensor_type;location;lat;lon;timestamp;P1;durP1;ratioP1;P2;durP2;ratioP2
45358;SDS011;31096;49.292;8.710;2023-03-01T00:00:10;12.10;;;6.33;;
45358;SDS011;31096;49.292;8.710;2023-03-01T00:05:02;12.73;;;6.55;;
45358;SDS011;31096;49.292;8.710;2023-03-01T00:09:53;9.23;;;5.53;;
45358;SDS011;31096;49.292;8.710;2023-03-01T00:14:44;11.77;;;6.28;;
45358;SDS011;31096;49.292;8.710;2023-03-01T00:19:34;12.00;;;5.90;;
45358;SDS011;31096;49.292;8.710;2023-03-01T00:24:25;12.50;;;6.23;;
45358;SDS011;31096;49.292;8.710;2023-03-01T00:29:16;11.23;;;5.87;;
45358;SDS011;31096;49.292;8.710;2023-03-01T00:34:06;10.43;;;5.78;;
45358;SDS011;31096;49.292;8.710;2023-03-01T00:38:57;11.97;;;6.30;;
45358;SDS011;31096;49.292;8.710;2023-03-01T00:43:48;11.88;;;6.75;;
45358;SDS011;31096;49.292;8.710;2023-03-01T00:48:40;14.60;;;6.80;;
45358;SDS011;31096;49.292;8.710;2023-03-01T00:53:31;13.25;;;6.30;;
45358;SDS011;31096;49.292;8.710;2023-03-01T00:58:22;10.80;;;6.10;;
45358;SDS011;31096;49.292;8.710;2023-03-01T01:03:12;10.63;;;5.43;;
45358;SDS011;31096;49.292;8.710;2023-03-01T01:08:03;10.47;;;5.93;;
45358;SDS011;31096;49.292;8.710;2023-03-01T01:12:54;10.90;;;5.73;;
45358;SDS011;31096;49.292;8.710;2023-03-01T01:17:44;11.97;;;5.70;;
45358;SDS011;31096;49.292;8.710;2023-03-01T01:22:35;9.68;;;4.95;;
45358;SDS011;31096;49.292;8.710;2023-03-01T01:27:26;11.67;;;6.13;;
45358;SDS011;31096;49.292;8.710;2023-03-01T01:32:16;13.17;;;6.40;;
45358;SDS011;31096;49.292;8.710;2023-03-01T01:37:07;13.50;;;6.72;;
45358;SDS011;31096;49.292;8.710;2023-03-01T01:41:57;14.02;;;6.75;;
45358;SDS011;31096;49.292;8.710;2023-03-01T01:51:43;11.38;;;6.38;;
45358;SDS011;31096;49.292;8.710;2023-03-01T01:56:38;12.67;;;6.17;;
45358;SDS011;31096;49.292;8.710;2023-03-01T02:01:32;11.82;;;6.28;;
45358;SDS011;31096;49.292;8.710;2023-03-01T02:06:27;11.07;;;6.20;;
45358;SDS011;31096;49.292;8.710;2023-03-01T02:11:24;13.25;;;6.50;;
45358;SDS011;31096;49.292;8.710;2023-03-01T02:16:16;13.80;;;6.80;;
45358;SDS011;31096;49.292;8.710;2023-03-01T02:26:34;12.93;;;6.25;;
45358;SDS011;31096;49.292;8.710;2023-03-01T02:31:28;12.40;;;6.47;;
45358;SDS011;31096;49.292;8.710;2023-03-01T02:36:36;13.00;;;6.68;;
45358;SDS011;31096;49.292;8.710;2023-03-01T02:41:41;12.60;;;6.60;;
45358;SDS011;31096;49.292;8.710;2023-03-01T02:46:41;14.48;;;7.72;;
45358;SDS011;31096;49.292;8.710;2023-03-01T02:56:43;14.03;;;5.73;;
45358;SDS011;31096;49.292;8.710;2023-03-01T03:01:34;14.70;;;6.78;;
45358;SDS011;31096;49.292;8.710;2023-03-01T03:06:28;14.10;;;6.53;;
45358;SDS011;31096;49.292;8.710;2023-03-01T03:11:19;15.20;;;6.88;;
45358;SDS011;31096;49.292;8.710;2023-03-01T03:16:10;12.98;;;7.30;;
45358;SDS011;31096;49.292;8.710;2023-03-01T03:21:01;13.18;;;6.55;;
45358;SDS011;31096;49.292;8.710;2023-03-01T03:25:51;14.50;;;7.83;;
45358;SDS011;31096;49.292;8.710;2023-03-01T03:30:42;13.20;;;6.67;;
45358;SDS011;31096;49.292;8.710;2023-03-01T03:35:38;15.32;;;7.32;;
45358;SDS011;31096;49.292;8.710;2023-03-01T03:40:34;15.07;;;7.67;;
45358;SDS011;31096;49.292;8.710;2023-03-01T03:45:29;11.30;;;6.88;;
45358;SDS011;31096;49.292;8.710;2023-03-01T03:50:23;11.73;;;6.55;;
45358;SDS011;31096;49.292;8.710;2023-03-01T03:55:13;14.80;;;7.30;;
45358;SDS011;31096;49.292;8.710;2023-03-01T04:00:04;11.73;;;6.27;;
45358;SDS011;31096;49.292;8.710;2023-03-01T04:05:02;13.00;;;6.93;;
45358;SDS011;31096;49.292;8.710;2023-03-01T04:09:53;12.70;;;6.70;;
45358;SDS011;31096;49.292;8.710;2023-03-01T04:14:44;14.68;;;6.82;;
45358;SDS011;31096;49.292;8.710;2023-03-01T04:19:34;14.38;;;7.22;;
45358;SDS011;31096;49.292;8.710;2023-03-01T04:24:26;12.47;;;6.83;;
45358;SDS011;31096;49.292;8.710;2023-03-01T04:29:16;14.40;;;7.15;;
45358;SDS011;31096;49.292;8.710;2023-03-01T04:34:07;12.77;;;7.22;;
45358;SDS011;31096;49.292;8.710;2023-03-01T04:38:57;14.77;;;6.97;;
45358;SDS011;31096;49.292;8.710;2023-03-01T04:43:48;13.67;;;6.67;;
45358;SDS011;31096;49.292;8.710;2023-03-01T04:48:40;15.90;;;7.45;;
45358;SDS011;31096;49.292;8.710;2023-03-01T04:53:33;14.20;;;7.32;;
45358;SDS011;31096;49.292;8.710;2023-03-01T04:58:26;13.88;;;7.25;;
45358;SDS011;31096;49.292;8.710;2023-03-01T05:03:18;16.60;;;7.80;;
45358;SDS011;31096;49.292;8.710;2023-03-01T05:08:09;12.93;;;6.73;;
45358;SDS011;31096;49.292;8.710;2023-03-01T05:13:07;15.93;;;7.63;;
45358;SDS011;31096;49.292;8.710;2023-03-01T05:17:58;15.00;;;7.13;;
45358;SDS011;31096;49.292;8.710;2023-03-01T05:22:50;14.85;;;8.25;;
45358;SDS011;31096;49.292;8.710;2023-03-01T05:27:42;14.30;;;7.22;;
45358;SDS011;31096;49.292;8.710;2023-03-01T05:32:33;14.83;;;7.00;;
45358;SDS011;31096;49.292;8.710;2023-03-01T05:37:23;13.88;;;7.40;;
45358;SDS011;31096;49.292;8.710;2023-03-01T05:42:14;16.15;;;8.60;;
45358;SDS011;31096;49.292;8.710;2023-03-01T05:47:05;15.57;;;7.37;;
45358;SDS011;31096;49.292;8.710;2023-03-01T05:51:55;13.70;;;7.77;;
45358;SDS011;31096;49.292;8.710;2023-03-01T05:56:46;13.98;;;6.45;;
45358;SDS011;31096;49.292;8.710;2023-03-01T06:01:37;16.97;;;7.57;;
45358;SDS011;31096;49.292;8.710;2023-03-01T06:06:28;16.38;;;7.40;;
45358;SDS011;31096;49.292;8.710;2023-03-01T06:11:19;15.77;;;7.83;;
45358;SDS011;31096;49.292;8.710;2023-03-01T06:16:11;14.50;;;7.60;;
45358;SDS011;31096;49.292;8.710;2023-03-01T06:21:03;16.87;;;8.07;;
45358;SDS011;31096;49.292;8.710;2023-03-01T06:25:54;17.88;;;8.30;;
45358;SDS011;31096;49.292;8.710;2023-03-01T06:30:45;15.93;;;7.90;;
45358;SDS011;31096;49.292;8.710;2023-03-01T06:35:36;16.90;;;8.93;;
45358;SDS011;31096;49.292;8.710;2023-03-01T06:40:26;15.50;;;7.87;;
45358;SDS011;31096;49.292;8.710;2023-03-01T06:45:18;18.20;;;8.77;;
45358;SDS011;31096;49.292;8.710;2023-03-01T06:50:10;23.40;;;10.77;;
45358;SDS011;31096;49.292;8.710;2023-03-01T06:55:01;22.50;;;11.57;;
45358;SDS011;31096;49.292;8.710;2023-03-01T06:59:52;18.10;;;10.63;;
45358;SDS011;31096;49.292;8.710;2023-03-01T07:04:43;21.05;;;10.57;;
45358;SDS011;31096;49.292;8.710;2023-03-01T07:09:33;18.90;;;9.50;;
45358;SDS011;31096;49.292;8.710;2023-03-01T07:14:24;17.70;;;8.90;;
45358;SDS011;31096;49.292;8.710;2023-03-01T07:19:15;16.85;;;8.43;;
45358;SDS011;31096;49.292;8.710;2023-03-01T07:24:06;17.53;;;8.47;;
45358;SDS011;31096;49.292;8.710;2023-03-01T07:29:02;15.95;;;8.38;;
45358;SDS011;31096;49.292;8.710;2023-03-01T07:33:54;15.27;;;8.27;;
45358;SDS011;31096;49.292;8.710;2023-03-01T07:38:45;16.08;;;8.95;;
45358;SDS011;31096;49.292;8.710;2023-03-01T07:43:36;18.77;;;8.48;;
45358;SDS011;31096;49.292;8.710;2023-03-01T07:48:27;15.25;;;8.02;;
45358;SDS011;31096;49.292;8.710;2023-03-01T07:53:19;14.43;;;8.43;;
45358;SDS011;31096;49.292;8.710;2023-03-01T07:58:09;18.67;;;9.40;;
45358;SDS011;31096;49.292;8.710;2023-03-01T08:03:00;18.13;;;9.47;;
45358;SDS011;31096;49.292;8.710;2023-03-01T08:07:51;19.65;;;10.02;;
45358;SDS011;31096;49.292;8.710;2023-03-01T08:12:42;17.77;;;8.30;;
45358;SDS011;31096;49.292;8.710;2023-03-01T08:17:33;19.90;;;9.67;;
45358;SDS011;31096;49.292;8.710;2023-03-01T08:22:23;18.15;;;9.18;;
45358;SDS011;31096;49.292;8.710;2023-03-01T08:27:15;18.73;;;9.83;;
45358;SDS011;31096;49.292;8.710;2023-03-01T08:32:06;21.33;;;10.20;;
45358;SDS011;31096;49.292;8.710;2023-03-01T08:36:57;19.97;;;10.30;;
45358;SDS011;31096;49.292;8.710;2023-03-01T08:41:48;21.15;;;9.77;;
45358;SDS011;31096;49.292;8.710;2023-03-01T08:46:39;20.37;;;9.57;;
45358;SDS011;31096;49.292;8.710;2023-03-01T08:51:31;20.08;;;10.73;;
45358;SDS011;31096;49.292;8.710;2023-03-01T08:56:26;19.03;;;9.77;;
45358;SDS011;31096;49.292;8.710;2023-03-01T09:01:18;23.25;;;11.65;;
45358;SDS011;31096;49.292;8.710;2023-03-01T09:06:09;21.48;;;9.55;;
45358;SDS011;31096;49.292;8.710;2023-03-01T09:11:03;22.83;;;10.68;;
45358;SDS011;31096;49.292;8.710;2023-03-01T09:16:00;22.70;;;11.13;;
45358;SDS011;31096;49.292;8.710;2023-03-01T09:20:52;20.15;;;10.45;;
45358;SDS011;31096;49.292;8.710;2023-03-01T09:25:46;21.63;;;11.20;;
45358;SDS011;31096;49.292;8.710;2023-03-01T09:30:37;21.42;;;10.18;;
45358;SDS011;31096;49.292;8.710;2023-03-01T09:35:28;20.50;;;11.23;;
45358;SDS011;31096;49.292;8.710;2023-03-01T09:40:20;22.98;;;11.55;;
45358;SDS011;31096;49.292;8.710;2023-03-01T09:45:33;22.07;;;11.80;;
45358;SDS011;31096;49.292;8.710;2023-03-01T09:50:28;25.25;;;12.85;;
45358;SDS011;31096;49.292;8.710;2023-03-01T09:55:26;22.95;;;11.38;;
45358;SDS011;31096;49.292;8.710;2023-03-01T10:05:41;20.38;;;11.32;;
45358;SDS011;31096;49.292;8.710;2023-03-01T10:10:39;21.23;;;11.03;;
45358;SDS011;31096;49.292;8.710;2023-03-01T10:15:34;20.75;;;11.18;;
45358;SDS011;31096;49.292;8.710;2023-03-01T10:36:41;20.53;;;10.53;;
45358;SDS011;31096;49.292;8.710;2023-03-01T10:41:33;19.90;;;10.35;;
45358;SDS011;31096;49.292;8.710;2023-03-01T10:51:25;26.13;;;13.07;;
45358;SDS011;31096;49.292;8.710;2023-03-01T10:56:16;22.03;;;11.77;;
45358;SDS011;31096;49.292;8.710;2023-03-01T11:11:04;22.38;;;11.40;;
45358;SDS011;31096;49.292;8.710;2023-03-01T11:16:22;22.27;;;11.15;;
45358;SDS011;31096;49.292;8.710;2023-03-01T11:21:31;21.90;;;11.50;;
45358;SDS011;31096;49.292;8.710;2023-03-01T11:26:23;23.60;;;12.07;;
45358;SDS011;31096;49.292;8.710;2023-03-01T11:31:14;20.23;;;10.10;;
45358;SDS011;31096;49.292;8.710;2023-03-01T11:36:07;18.67;;;9.85;;
45358;SDS011;31096;49.292;8.710;2023-03-01T11:41:25;17.63;;;9.60;;
45358;SDS011;31096;49.292;8.710;2023-03-01T11:51:32;20.13;;;9.95;;
45358;SDS011;31096;49.292;8.710;2023-03-01T11:56:53;16.60;;;9.50;;
45358;SDS011;31096;49.292;8.710;2023-03-01T12:07:04;20.53;;;10.00;;
45358;SDS011;31096;49.292;8.710;2023-03-01T12:17:22;19.10;;;10.25;;
45358;SDS011;31096;49.292;8.710;2023-03-01T12:27:25;19.70;;;10.55;;
45358;SDS011;31096;49.292;8.710;2023-03-01T12:54:15;19.27;;;10.57;;
45358;SDS011;31096;49.292;8.710;2023-03-01T12:59:24;12.68;;;7.82;;
45358;SDS011;31096;49.292;8.710;2023-03-01T13:04:58;17.30;;;9.73;;
45358;SDS011;31096;49.292;8.710;2023-03-01T13:15:41;18.67;;;9.80;;
45358;SDS011;31096;49.292;8.710;2023-03-01T13:20:34;18.45;;;10.13;;
45358;SDS011;31096;49.292;8.710;2023-03-01T13:26:00;18.70;;;10.15;;
45358;SDS011;31096;49.292;8.710;2023-03-01T13:30:49;18.93;;;10.13;;
45358;SDS011;31096;49.292;8.710;2023-03-01T13:35:41;19.77;;;10.15;;
45358;SDS011;31096;49.292;8.710;2023-03-01T13:41:07;18.13;;;8.90;;
45358;SDS011;31096;49.292;8.710;2023-03-01T13:45:51;16.27;;;9.35;;
45358;SDS011;31096;49.292;8.710;2023-03-01T13:50:45;16.40;;;9.87;;
45358;SDS011;31096;49.292;8.710;2023-03-01T13:55:44;14.55;;;8.98;;
45358;SDS011;31096;49.292;8.710;2023-03-01T14:00:38;17.92;;;9.77;;
45358;SDS011;31096;49.292;8.710;2023-03-01T14:05:30;20.80;;;9.27;;
45358;SDS011;31096;49.292;8.710;2023-03-01T14:10:22;15.02;;;8.68;;
45358;SDS011;31096;49.292;8.710;2023-03-01T14:15:34;16.48;;;8.70;;
45358;SDS011;31096;49.292;8.710;2023-03-01T14:20:33;16.00;;;10.38;;
45358;SDS011;31096;49.292;8.710;2023-03-01T14:25:47;18.83;;;10.30;;
45358;SDS011;31096;49.292;8.710;2023-03-01T14:30:44;16.80;;;9.27;;
45358;SDS011;31096;49.292;8.710;2023-03-01T14:35:38;17.55;;;9.50;;
45358;SDS011;31096;49.292;8.710;2023-03-01T14:45:25;16.60;;;9.63;;
45358;SDS011;31096;49.292;8.710;2023-03-01T14:55:21;16.10;;;9.00;;
45358;SDS011;31096;49.292;8.710;2023-03-01T15:00:27;15.98;;;9.32;;
45358;SDS011;31096;49.292;8.710;2023-03-01T15:10:27;17.83;;;9.57;;
45358;SDS011;31096;49.292;8.710;2023-03-01T15:15:23;16.73;;;8.65;;
45358;SDS011;31096;49.292;8.710;2023-03-01T15:20:24;18.00;;;8.90;;
45358;SDS011;31096;49.292;8.710;2023-03-01T15:25:24;16.90;;;9.53;;
45358;SDS011;31096;49.292;8.710;2023-03-01T15:30:23;16.42;;;9.10;;
45358;SDS011;31096;49.292;8.710;2023-03-01T15:40:48;17.33;;;9.67;;
45358;SDS011;31096;49.292;8.710;2023-03-01T15:50:58;15.02;;;8.65;;
45358;SDS011;31096;49.292;8.710;2023-03-01T16:06:47;17.83;;;9.57;;
45358;SDS011;31096;49.292;8.710;2023-03-01T16:11:43;19.92;;;9.70;;
45358;SDS011;31096;49.292;8.710;2023-03-01T16:16:34;16.77;;;8.70;;
45358;SDS011;31096;49.292;8.710;2023-03-01T16:34:55;17.67;;;8.50;;
45358;SDS011;31096;49.292;8.710;2023-03-01T16:39:45;16.85;;;9.20;;
45358;SDS011;31096;49.292;8.710;2023-03-01T16:44:37;21.03;;;9.57;;
45358;SDS011;31096;49.292;8.710;2023-03-01T16:49:27;16.67;;;8.75;;
45358;SDS011;31096;49.292;8.710;2023-03-01T16:54:18;22.03;;;9.43;;
45358;SDS011;31096;49.292;8.710;2023-03-01T16:59:09;15.83;;;8.40;;
45358;SDS011;31096;49.292;8.710;2023-03-01T17:03:59;17.27;;;8.50;;
45358;SDS011;31096;49.292;8.710;2023-03-01T17:08:50;18.45;;;8.95;;
45358;SDS011;31096;49.292;8.710;2023-03-01T17:13:41;20.23;;;10.93;;
45358;SDS011;31096;49.292;8.710;2023-03-01T17:18:33;20.92;;;9.90;;
45358;SDS011;31096;49.292;8.710;2023-03-01T17:23:26;17.08;;;8.60;;
45358;SDS011;31096;49.292;8.710;2023-03-01T17:28:18;16.80;;;8.53;;
45358;SDS011;31096;49.292;8.710;2023-03-01T17:39:36;17.55;;;9.05;;
45358;SDS011;31096;49.292;8.710;2023-03-01T17:44:27;18.33;;;9.30;;
45358;SDS011;31096;49.292;8.710;2023-03-01T17:49:18;16.25;;;8.38;;
45358;SDS011;31096;49.292;8.710;2023-03-01T17:54:08;19.33;;;9.20;;
45358;SDS011;31096;49.292;8.710;2023-03-01T17:58:59;20.73;;;9.63;;
45358;SDS011;31096;49.292;8.710;2023-03-01T18:03:51;18.08;;;10.23;;
45358;SDS011;31096;49.292;8.710;2023-03-01T18:08:42;19.08;;;10.07;;
45358;SDS011;31096;49.292;8.710;2023-03-01T18:13:34;20.23;;;8.90;;
45358;SDS011;31096;49.292;8.710;2023-03-01T18:18:25;20.33;;;9.63;;
45358;SDS011;31096;49.292;8.710;2023-03-01T18:23:19;20.15;;;10.18;;
45358;SDS011;31096;49.292;8.710;2023-03-01T18:28:10;20.50;;;9.50;;
45358;SDS011;31096;49.292;8.710;2023-03-01T18:33:00;21.40;;;9.73;;
45358;SDS011;31096;49.292;8.710;2023-03-01T18:37:51;17.87;;;8.63;;
45358;SDS011;31096;49.292;8.710;2023-03-01T18:42:42;18.40;;;8.68;;
45358;SDS011;31096;49.292;8.710;2023-03-01T18:47:32;19.10;;;9.40;;
45358;SDS011;31096;49.292;8.710;2023-03-01T18:52:23;23.17;;;9.73;;
45358;SDS011;31096;49.292;8.710;2023-03-01T18:57:14;20.80;;;10.00;;
45358;SDS011;31096;49.292;8.710;2023-03-01T19:02:04;18.50;;;9.77;;
45358;SDS011;31096;49.292;8.710;2023-03-01T19:06:55;21.00;;;10.45;;
45358;SDS011;31096;49.292;8.710;2023-03-01T19:11:46;21.57;;;9.90;;
45358;SDS011;31096;49.292;8.710;2023-03-01T19:16:37;18.57;;;9.40;;
45358;SDS011;31096;49.292;8.710;2023-03-01T19:21:28;17.17;;;8.95;;
45358;SDS011;31096;49.292;8.710;2023-03-01T19:26:22;17.43;;;8.23;;
45358;SDS011;31096;49.292;8.710;2023-03-01T19:31:24;17.23;;;8.30;;
45358;SDS011;31096;49.292;8.710;2023-03-01T19:36:17;16.80;;;8.02;;
45358;SDS011;31096;49.292;8.710;2023-03-01T19:41:11;17.23;;;8.10;;
45358;SDS011;31096;49.292;8.710;2023-03-01T19:46:05;14.18;;;7.60;;
45358;SDS011;31096;49.292;8.710;2023-03-01T19:50:56;15.27;;;7.27;;
45358;SDS011;31096;49.292;8.710;2023-03-01T19:55:47;18.15;;;8.88;;
45358;SDS011;31096;49.292;8.710;2023-03-01T20:00:43;18.90;;;8.48;;
45358;SDS011;31096;49.292;8.710;2023-03-01T20:05:36;16.50;;;8.52;;
45358;SDS011;31096;49.292;8.710;2023-03-01T20:10:28;17.58;;;9.25;;
45358;SDS011;31096;49.292;8.710;2023-03-01T20:15:20;20.03;;;9.40;;
45358;SDS011;31096;49.292;8.710;2023-03-01T20:20:11;17.88;;;10.18;;
45358;SDS011;31096;49.292;8.710;2023-03-01T20:25:02;19.10;;;8.83;;
45358;SDS011;31096;49.292;8.710;2023-03-01T20:29:53;15.60;;;7.93;;
45358;SDS011;31096;49.292;8.710;2023-03-01T20:34:44;16.20;;;8.73;;
45358;SDS011;31096;49.292;8.710;2023-03-01T20:39:35;18.83;;;9.52;;
45358;SDS011;31096;49.292;8.710;2023-03-01T20:44:26;22.23;;;10.73;;
45358;SDS011;31096;49.292;8.710;2023-03-01T20:49:16;18.17;;;9.23;;
45358;SDS011;31096;49.292;8.710;2023-03-01T20:54:07;21.00;;;9.77;;
45358;SDS011;31096;49.292;8.710;2023-03-01T20:58:59;18.33;;;9.50;;
45358;SDS011;31096;49.292;8.710;2023-03-01T21:03:50;18.60;;;9.65;;
45358;SDS011;31096;49.292;8.710;2023-03-01T21:08:41;20.37;;;10.50;;
45358;SDS011;31096;49.292;8.710;2023-03-01T21:13:32;21.27;;;10.60;;
45358;SDS011;31096;49.292;8.710;2023-03-01T21:18:23;20.93;;;9.90;;
45358;SDS011;31096;49.292;8.710;2023-03-01T21:23:18;22.90;;;11.15;;
45358;SDS011;31096;49.292;8.710;2023-03-01T21:28:09;21.67;;;10.60;;
45358;SDS011;31096;49.292;8.710;2023-03-01T21:33:00;21.58;;;11.63;;
45358;SDS011;31096;49.292;8.710;2023-03-01T21:37:51;19.07;;;9.23;;
45358;SDS011;31096;49.292;8.710;2023-03-01T21:42:41;16.33;;;8.10;;
45358;SDS011;31096;49.292;8.710;2023-03-01T21:47:33;19.85;;;9.73;;
45358;SDS011;31096;49.292;8.710;2023-03-01T21:52:25;23.88;;;11.68;;
45358;SDS011;31096;49.292;8.710;2023-03-01T21:57:15;24.73;;;12.02;;
45358;SDS011;31096;49.292;8.710;2023-03-01T22:02:06;23.53;;;10.63;;
45358;SDS011;31096;49.292;8.710;2023-03-01T22:06:59;26.05;;;11.77;;
45358;SDS011;31096;49.292;8.710;2023-03-01T22:11:50;19.57;;;9.17;;
45358;SDS011;31096;49.292;8.710;2023-03-01T22:16:47;21.27;;;10.55;;
45358;SDS011;31096;49.292;8.710;2023-03-01T22:21:41;22.27;;;11.07;;
45358;SDS011;31096;49.292;8.710;2023-03-01T22:26:35;19.70;;;10.00;;
45358;SDS011;31096;49.292;8.710;2023-03-01T22:31:29;24.33;;;11.77;;
45358;SDS011;31096;49.292;8.710;2023-03-01T22:36:19;19.70;;;9.63;;
45358;SDS011;31096;49.292;8.710;2023-03-01T22:41:10;25.75;;;12.23;;
45358;SDS011;31096;49.292;8.710;2023-03-01T22:46:09;25.40;;;11.30;;
45358;SDS011;31096;49.292;8.710;2023-03-01T22:51:12;21.98;;;11.02;;
45358;SDS011;31096;49.292;8.710;2023-03-01T22:56:16;25.42;;;11.27;;
45358;SDS011;31096;49.292;8.710;2023-03-01T23:01:13;19.47;;;9.93;;
45358;SDS011;31096;49.292;8.710;2023-03-01T23:06:09;20.42;;;10.48;;
45358;SDS011;31096;49.292;8.710;2023-03-01T23:11:00;20.13;;;10.80;;
45358;SDS011;31096;49.292;8.710;2023-03-01T23:15:55;25.52;;;11.32;;
45358;SDS011;31096;49.292;8.710;2023-03-01T23:20:47;21.00;;;9.55;;
45358;SDS011;31096;49.292;8.710;2023-03-01T23:25:38;24.00;;;11.30;;
45358;SDS011;31096;49.292;8.710;2023-03-01T23:30:28;24.63;;;11.25;;
45358;SDS011;31096;49.292;8.710;2023-03-01T23:35:19;22.20;;;10.98;;
45358;SDS011;31096;49.292;8.710;2023-03-01T23:40:10;28.13;;;13.23;;
45358;SDS011;31096;49.292;8.710;2023-03-01T23:45:01;23.88;;;11.27;;
45358;SDS011;31096;49.292;8.710;2023-03-01T23:49:52;25.80;;;12.50;;
45358;SDS011;31096;49.292;8.710;2023-03-01T23:54:46;27.27;;;11.20;;
45358;SDS011;31096;49.292;8.710;2023-03-01T23:59:36;23.33;;;11.87;;
